Time;durP1;ratioP1;P1;durP2;ratioP2;P2;SDS_P1;SDS_P2;PMS_P1;PMS_P2;Temp;Humidity;BMP_temperature;BMP_pressure;BME280_temperature;BME280_humidity;BME280_pressure;Samples;Min_cycle;Max_cycle;Signal;HPM_P1;HPM_P2
2022/12/23 00:00:13;;;;;;;35.78;10.85;;;8.30;99.90;;;;;;4994852;28;20043;-40
2022/12/23 00:02:39;;;;;;;34.72;10.60;;;8.30;99.90;;;;;;4994843;28;20069;-47
2022/12/23 00:05:05;;;;;;;30.30;10.18;;;8.30;99.90;;;;;;4990190;28;20147;-44
2022/12/23 00:07:31;;;;;;;45.35;11.88;;;8.40;99.90;;;;;;5000669;28;20039;-46
2022/12/23 00:09:57;;;;;;;35.38;11.13;;;8.30;99.90;;;;;;5001110;28;20045;-45
2022/12/23 00:15:08;;;;;;;47.65;12.15;;;8.30;99.90;;;;;;4994953;28;20377;-44
2022/12/23 00:17:44;;;;;;;71.53;16.75;;;8.40;99.90;;;;;;4996929;28;20038;-41
2022/12/23 00:20:13;;;;;;;90.38;16.90;;;8.40;99.90;;;;;;4998772;28;21479;-47
2022/12/23 00:25:39;;;;;;;62.65;14.38;;;8.40;99.90;;;;;;5000396;28;20058;-44
2022/12/23 00:28:19;;;;;;;68.22;14.38;;;8.40;99.90;;;;;;4994150;28;20047;-46
2022/12/23 00:30:50;;;;;;;43.70;11.23;;;8.40;99.90;;;;;;5004953;28;20108;-44
2022/12/23 00:33:18;;;;;;;49.20;13.68;;;8.40;99.90;;;;;;4996851;28;20034;-41
2022/12/23 00:35:45;;;;;;;63.67;14.30;;;8.40;99.90;;;;;;4998055;28;20115;-47
2022/12/23 00:38:11;;;;;;;73.88;14.73;;;8.40;99.90;;;;;;4992177;28;20045;-44
2022/12/23 00:43:21;;;;;;;57.83;13.70;;;8.40;99.90;;;;;;4992360;28;20503;-44
2022/12/23 00:45:47;;;;;;;43.78;12.05;;;8.40;99.90;;;;;;4990377;28;20045;-42
2022/12/23 00:50:57;;;;;;;50.83;12.98;;;8.40;99.90;;;;;;5000079;28;20108;-45
2022/12/23 00:53:23;;;;;;;47.47;11.50;;;8.40;99.90;;;;;;5002588;28;20069;-44
2022/12/23 00:55:49;;;;;;;48.25;12.50;;;8.40;99.90;;;;;;4993460;28;20120;-49
2022/12/23 00:58:16;;;;;;;46.05;13.63;;;8.40;99.90;;;;;;4985170;28;20040;-43
2022/12/23 01:06:12;;;;;;;44.92;11.77;;;8.40;99.90;;;;;;4990586;28;20046;-44
2022/12/23 01:08:38;;;;;;;35.75;11.80;;;8.40;99.90;;;;;;4995450;28;20052;-48
2022/12/23 01:11:06;;;;;;;44.78;12.23;;;8.40;99.90;;;;;;5003554;28;20042;-47
2022/12/23 01:13:32;;;;;;;39.30;13.05;;;8.40;99.90;;;;;;4984392;28;20951;-44
2022/12/23 01:16:06;;;;;;;39.75;12.50;;;8.40;99.90;;;;;;5000362;28;20038;-45
2022/12/23 01:18:33;;;;;;;33.40;11.05;;;8.40;99.90;;;;;;5003633;28;20368;-43
2022/12/23 01:21:04;;;;;;;36.65;10.43;;;8.40;99.90;;;;;;4998701;28;20514;-48
2022/12/23 01:23:30;;;;;;;32.60;11.00;;;8.40;99.90;;;;;;4995905;28;20438;-45
2022/12/23 01:25:57;;;;;;;34.40;10.98;;;8.40;99.90;;;;;;4997861;28;20038;-43
2022/12/23 01:28:23;;;;;;;34.33;9.98;;;8.40;99.90;;;;;;5001558;28;20033;-41
2022/12/23 01:30:49;;;;;;;36.88;11.60;;;8.40;99.90;;;;;;4998504;28;20048;-47
2022/12/23 01:33:14;;;;;;;29.70;10.60;;;8.40;99.90;;;;;;4991419;28;20035;-42
2022/12/23 01:35:40;;;;;;;31.20;10.55;;;8.40;99.90;;;;;;4999133;28;20038;-45
2022/12/23 01:38:06;;;;;;;28.13;9.57;;;8.40;99.90;;;;;;4995063;28;20547;-43
2022/12/23 01:40:36;;;;;;;28.45;11.07;;;8.40;99.90;;;;;;5011866;28;20133;-44
2022/12/23 01:43:02;;;;;;;25.83;9.80;;;8.50;99.90;;;;;;4997188;28;20041;-44
2022/12/23 01:45:30;;;;;;;32.20;10.45;;;8.50;99.90;;;;;;4995793;28;20418;-52
2022/12/23 01:47:57;;;;;;;30.45;11.38;;;8.50;99.90;;;;;;4996925;28;20077;-42
2022/12/23 01:50:26;;;;;;;27.35;9.63;;;8.50;99.90;;;;;;5002476;28;20049;-46
2022/12/23 01:53:12;;;;;;;27.10;10.02;;;8.40;99.90;;;;;;5003134;28;20483;-41
2022/12/23 01:55:42;;;;;;;25.23;10.20;;;8.40;99.90;;;;;;4997255;28;20037;-44
2022/12/23 01:58:14;;;;;;;27.80;10.50;;;8.40;99.90;;;;;;4998040;28;20037;-45
2022/12/23 02:03:44;;;;;;;30.75;9.75;;;8.30;99.90;;;;;;4997236;28;20050;-47
2022/12/23 02:09:16;;;;;;;30.33;11.38;;;8.30;99.90;;;;;;4997635;28;20049;-45
2022/12/23 02:12:06;;;;;;;37.55;10.85;;;8.20;99.90;;;;;;5000008;28;20121;-44
2022/12/23 02:17:49;;;;;;;28.38;9.40;;;8.20;99.90;;;;;;4949483;28;20412;-47
2022/12/23 02:20:37;;;;;;;28.48;9.23;;;8.20;99.90;;;;;;4950840;28;20043;-55
2022/12/23 02:23:19;;;;;;;25.98;8.73;;;8.10;99.90;;;;;;4985643;28;20423;-46
2022/12/23 02:26:23;;;;;;;20.63;8.32;;;8.10;99.90;;;;;;5002599;28;20096;-47
2022/12/23 02:29:26;;;;;;;22.77;8.18;;;8.10;99.90;;;;;;4970170;28;20545;-47
2022/12/23 02:32:00;;;;;;;19.52;7.38;;;8.10;99.90;;;;;;5008670;28;20128;-44
2022/12/23 02:34:31;;;;;;;22.75;7.90;;;8.10;99.90;;;;;;4998103;28;20049;-41
2022/12/23 02:37:07;;;;;;;19.60;6.57;;;8.10;99.90;;;;;;4995278;28;20569;-47
2022/12/23 02:39:50;;;;;;;25.30;6.53;;;8.10;99.90;;;;;;4995660;28;20042;-47
2022/12/23 02:42:41;;;;;;;14.88;5.35;;;8.00;99.90;;;;;;5004542;28;20049;-44
2022/12/23 02:45:20;;;;;;;16.67;5.43;;;8.00;99.90;;;;;;5002014;28;20121;-44
2022/12/23 02:47:53;;;;;;;21.65;6.20;;;8.00;99.90;;;;;;5003083;28;20742;-45
2022/12/23 02:50:25;;;;;;;16.70;4.90;;;8.00;99.90;;;;;;5000638;28;20537;-46
2022/12/23 02:52:53;;;;;;;16.75;5.90;;;8.00;99.90;;;;;;4999859;28;20093;-44
2022/12/23 02:55:24;;;;;;;12.57;4.50;;;8.00;99.90;;;;;;4991662;28;20053;-44
2022/12/23 02:57:53;;;;;;;13.60;4.90;;;7.90;99.90;;;;;;5002151;28;20580;-45
2022/12/23 03:00:20;;;;;;;15.75;4.95;;;7.90;99.90;;;;;;5002109;28;20045;-44
2022/12/23 03:02:46;;;;;;;14.73;5.13;;;7.90;99.90;;;;;;4999885;28;20129;-46
2022/12/23 03:05:33;;;;;;;15.48;4.70;;;7.90;99.90;;;;;;4991482;28;20116;-47
2022/12/23 03:08:03;;;;;;;14.73;5.57;;;7.90;99.90;;;;;;4997982;28;20061;-42
2022/12/23 03:10:57;;;;;;;18.90;5.47;;;7.90;99.90;;;;;;4996397;28;20049;-45
2022/12/23 03:13:47;;;;;;;17.25;5.85;;;7.90;99.90;;;;;;4996628;28;20510;-43
2022/12/23 03:16:28;;;;;;;12.80;4.25;;;7.80;99.90;;;;;;4998519;28;20057;-45
2022/12/23 03:19:09;;;;;;;20.23;5.85;;;7.80;99.90;;;;;;4996258;28;20053;-43
2022/12/23 03:21:39;;;;;;;14.73;5.40;;;7.80;99.90;;;;;;4994782;28;20057;-45
2022/12/23 03:24:32;;;;;;;14.93;5.70;;;7.80;99.90;;;;;;5003704;28;20073;-48
2022/12/23 03:27:10;;;;;;;17.02;5.82;;;7.80;99.90;;;;;;4998157;28;20061;-48
2022/12/23 03:29:39;;;;;;;21.88;6.40;;;7.80;99.90;;;;;;5000550;28;20038;-43
2022/12/23 03:32:07;;;;;;;28.27;6.47;;;7.80;99.90;;;;;;4996199;28;20042;-45
2022/12/23 03:34:39;;;;;;;24.00;6.63;;;7.80;99.90;;;;;;5002121;28;20065;-44
2022/12/23 03:37:08;;;;;;;26.85;7.82;;;7.80;99.90;;;;;;5001109;28;20499;-45
2022/12/23 03:39:44;;;;;;;18.63;5.85;;;7.80;99.90;;;;;;5003111;28;20096;-41
2022/12/23 03:42:23;;;;;;;30.88;7.20;;;7.80;99.90;;;;;;5007897;28;20059;-44
2022/12/23 03:44:51;;;;;;;48.67;9.35;;;7.70;99.90;;;;;;4993974;28;20046;-46
2022/12/23 03:47:24;;;;;;;63.70;10.02;;;7.70;99.90;;;;;;4990658;28;20487;-45
2022/12/23 03:49:59;;;;;;;49.05;8.57;;;7.70;99.90;;;;;;4997196;28;20140;-47
2022/12/23 03:53:01;;;;;;;38.58;7.55;;;7.70;99.90;;;;;;4996245;28;20049;-45
2022/12/23 03:55:47;;;;;;;60.30;9.25;;;7.70;99.90;;;;;;4981409;28;21543;-48
2022/12/23 03:58:32;;;;;;;38.88;7.97;;;7.70;99.90;;;;;;5000160;28;20088;-47
2022/12/23 04:01:23;;;;;;;51.53;9.75;;;7.70;99.90;;;;;;4994780;28;20042;-47
2022/12/23 04:03:55;;;;;;;24.50;7.00;;;7.70;99.90;;;;;;4985049;28;20050;-55
2022/12/23 04:06:22;;;;;;;22.30;7.20;;;7.70;99.90;;;;;;5000562;28;20091;-47
2022/12/23 04:08:49;;;;;;;34.85;8.18;;;7.70;99.90;;;;;;4997965;28;20113;-43
2022/12/23 04:11:15;;;;;;;39.67;8.40;;;7.70;99.90;;;;;;4999355;28;20039;-45
2022/12/23 04:13:41;;;;;;;27.55;7.18;;;7.60;99.90;;;;;;4997414;28;20103;-43
2022/12/23 04:16:07;;;;;;;20.88;6.50;;;7.70;99.90;;;;;;4994624;28;20037;-47
2022/12/23 04:18:32;;;;;;;31.75;8.55;;;7.70;99.90;;;;;;4997310;28;20503;-45
2022/12/23 04:20:58;;;;;;;26.73;7.15;;;7.60;99.90;;;;;;5001130;28;20092;-46
2022/12/23 04:23:24;;;;;;;23.67;7.10;;;7.60;99.90;;;;;;5003787;28;20096;-42
2022/12/23 04:25:49;;;;;;;31.25;7.68;;;7.60;99.90;;;;;;5001671;28;20080;-47
2022/12/23 04:28:17;;;;;;;20.13;6.30;;;7.60;99.90;;;;;;5008819;28;20042;-48
2022/12/23 04:30:42;;;;;;;23.98;6.72;;;7.60;99.90;;;;;;5001003;28;20157;-48
2022/12/23 04:33:10;;;;;;;21.05;6.53;;;7.60;99.90;;;;;;4999470;28;20026;-46
2022/12/23 04:35:36;;;;;;;19.08;6.07;;;7.60;99.90;;;;;;4994111;28;20038;-42
2022/12/23 04:38:02;;;;;;;17.98;6.22;;;7.60;99.90;;;;;;4991208;28;20042;-44
2022/12/23 04:40:28;;;;;;;27.38;7.43;;;7.60;99.90;;;;;;5003817;28;20054;-48
2022/12/23 04:42:53;;;;;;;23.05;6.03;;;7.60;99.90;;;;;;4996730;28;20105;-44
2022/12/23 04:45:19;;;;;;;16.30;5.28;;;7.50;99.90;;;;;;4997008;28;20168;-46
2022/12/23 04:47:44;;;;;;;16.95;5.82;;;7.60;99.90;;;;;;4997479;28;20447;-47
2022/12/23 04:50:14;;;;;;;18.40;6.72;;;7.50;99.90;;;;;;5000616;28;20269;-43
2022/12/23 04:52:40;;;;;;;17.27;6.20;;;7.60;99.90;;;;;;4989327;28;20039;-43
2022/12/23 04:55:06;;;;;;;24.17;6.95;;;7.50;99.90;;;;;;4994020;28;20144;-42
2022/12/23 04:57:32;;;;;;;19.95;6.60;;;7.60;99.90;;;;;;5004823;28;20060;-39
2022/12/23 04:59:58;;;;;;;20.65;6.30;;;7.50;99.90;;;;;;5002125;28;20037;-45
2022/12/23 05:02:23;;;;;;;18.17;6.15;;;7.50;99.90;;;;;;4993721;28;20049;-46
2022/12/23 05:04:49;;;;;;;18.85;6.38;;;7.50;99.90;;;;;;4993882;28;20046;-44
2022/12/23 05:07:15;;;;;;;16.98;5.70;;;7.50;99.90;;;;;;4998372;28;20053;-44
2022/12/23 05:09:40;;;;;;;21.80;7.85;;;7.50;99.90;;;;;;4995551;28;20042;-42
2022/12/23 05:12:06;;;;;;;22.35;6.75;;;7.40;99.90;;;;;;4997885;28;20121;-46
2022/12/23 05:14:32;;;;;;;17.38;6.95;;;7.40;99.90;;;;;;4996799;28;20120;-43
2022/12/23 05:16:57;;;;;;;18.42;6.43;;;7.40;99.90;;;;;;4990906;28;20041;-41
2022/12/23 05:19:23;;;;;;;28.90;7.35;;;7.40;99.90;;;;;;4996575;28;20045;-43
2022/12/23 05:21:49;;;;;;;32.55;7.43;;;7.40;99.90;;;;;;4995034;28;20030;-45
2022/12/23 05:24:14;;;;;;;118.35;14.82;;;7.40;99.90;;;;;;4998659;28;20088;-40
2022/12/23 05:26:40;;;;;;;136.00;12.15;;;7.30;99.90;;;;;;4996277;28;20041;-45
2022/12/23 05:29:06;;;;;;;94.38;9.05;;;7.30;99.90;;;;;;4999092;28;20033;-45
2022/12/23 05:31:31;;;;;;;192.05;17.58;;;7.30;99.90;;;;;;4991557;28;20050;-45
2022/12/23 05:33:57;;;;;;;153.55;12.73;;;7.30;99.90;;;;;;4996992;28;20062;-40
2022/12/23 05:36:23;;;;;;;185.82;19.40;;;7.20;99.90;;;;;;4995396;28;20035;-38
2022/12/23 05:38:49;;;;;;;125.85;12.25;;;7.30;99.90;;;;;;4994085;28;20133;-40
2022/12/23 05:41:17;;;;;;;112.53;12.70;;;7.30;99.90;;;;;;4997861;28;20099;-44
2022/12/23 05:43:43;;;;;;;198.60;15.75;;;7.30;99.90;;;;;;4987882;28;20491;-45
2022/12/23 05:46:09;;;;;;;135.10;13.95;;;7.30;99.90;;;;;;4996890;28;20117;-45
2022/12/23 05:48:34;;;;;;;71.88;8.95;;;7.30;99.90;;;;;;5001621;28;20053;-44
2022/12/23 05:51:00;;;;;;;232.43;24.23;;;7.30;99.90;;;;;;4998446;28;20047;-42
2022/12/23 05:53:25;;;;;;;118.47;16.23;;;7.30;99.90;;;;;;4996426;28;20585;-40
2022/12/23 05:55:51;;;;;;;279.40;22.50;;;7.30;99.90;;;;;;4998097;28;20042;-44
2022/12/23 05:58:17;;;;;;;179.73;14.77;;;7.30;99.90;;;;;;4987617;28;20388;-44
2022/12/23 06:00:43;;;;;;;148.60;14.98;;;7.30;99.90;;;;;;4994911;28;20046;-46
2022/12/23 06:03:09;;;;;;;146.00;12.10;;;7.20;99.90;;;;;;4994265;28;20042;-44
2022/12/23 06:05:38;;;;;;;180.45;18.48;;;7.20;99.90;;;;;;4996282;28;20133;-47
2022/12/23 06:08:04;;;;;;;265.05;20.35;;;7.10;99.90;;;;;;4996996;28;20052;-47
2022/12/23 06:10:30;;;;;;;180.18;15.35;;;7.10;99.90;;;;;;5000625;28;20458;-42
2022/12/23 06:12:55;;;;;;;125.68;13.85;;;7.00;99.90;;;;;;4989437;28;20049;-45
2022/12/23 06:15:21;;;;;;;93.22;12.75;;;7.00;99.90;;;;;;4997409;28;20096;-44
2022/12/23 06:17:47;;;;;;;109.75;12.05;;;7.00;99.90;;;;;;5007763;28;20490;-42
2022/12/23 06:20:13;;;;;;;90.60;10.45;;;7.00;99.90;;;;;;4997634;28;20038;-42
2022/12/23 06:22:38;;;;;;;148.73;12.90;;;7.00;99.90;;;;;;5004011;28;20038;-46
2022/12/23 06:25:04;;;;;;;89.47;10.70;;;7.00;99.90;;;;;;5005490;28;20030;-43
2022/12/23 06:27:30;;;;;;;79.13;10.25;;;7.00;99.90;;;;;;5003975;28;20491;-43
2022/12/23 06:29:56;;;;;;;83.22;8.82;;;6.90;99.90;;;;;;5004751;28;20039;-42
2022/12/23 06:32:21;;;;;;;109.25;11.38;;;6.90;99.90;;;;;;4995302;28;20081;-41
2022/12/23 06:34:52;;;;;;;55.50;7.30;;;6.90;99.90;;;;;;5008664;28;20552;-42
2022/12/23 06:37:18;;;;;;;58.80;6.90;;;6.90;99.90;;;;;;4996442;28;20077;-48
2022/12/23 06:39:44;;;;;;;54.55;7.47;;;6.90;99.90;;;;;;5002748;28;20057;-41
2022/12/23 06:42:10;;;;;;;40.58;4.90;;;6.90;99.90;;;;;;5003353;28;20050;-45
2022/12/23 06:44:35;;;;;;;73.38;9.82;;;6.90;99.90;;;;;;4992367;28;20057;-46
2022/12/23 06:47:01;;;;;;;35.78;5.78;;;6.90;99.90;;;;;;4990004;28;20137;-43
2022/12/23 06:49:27;;;;;;;30.38;5.72;;;6.80;99.90;;;;;;4996699;28;20064;-46
2022/12/23 06:51:52;;;;;;;44.85;5.47;;;6.80;99.90;;;;;;4997182;28;20151;-46
2022/12/23 06:54:18;;;;;;;43.55;6.32;;;6.90;99.90;;;;;;4997816;28;20487;-41
2022/12/23 06:56:44;;;;;;;37.90;6.00;;;6.80;99.90;;;;;;4997906;28;20045;-46
2022/12/23 06:59:09;;;;;;;47.53;8.35;;;6.80;99.90;;;;;;4984819;28;20045;-47
2022/12/23 07:01:35;;;;;;;38.50;7.72;;;6.80;99.90;;;;;;4990195;28;20056;-39
2022/12/23 07:04:01;;;;;;;17.05;5.03;;;6.80;99.90;;;;;;4999942;28;20053;-44
2022/12/23 07:06:27;;;;;;;62.75;8.98;;;6.80;99.90;;;;;;4992422;28;20046;-38
2022/12/23 07:08:53;;;;;;;19.17;5.35;;;6.70;99.90;;;;;;4995465;28;20037;-38
2022/12/23 07:11:19;;;;;;;24.70;5.85;;;6.70;99.90;;;;;;4994916;28;20049;-37
2022/12/23 07:13:45;;;;;;;31.65;6.25;;;6.80;99.90;;;;;;4999817;28;20034;-36
2022/12/23 07:16:11;;;;;;;22.30;5.88;;;6.80;99.90;;;;;;4994047;28;20068;-38
2022/12/23 07:18:37;;;;;;;11.25;3.90;;;6.80;99.90;;;;;;4992838;28;20042;-36
2022/12/23 07:21:03;;;;;;;15.23;5.35;;;6.80;99.90;;;;;;4996886;28;20037;-35
2022/12/23 07:23:29;;;;;;;17.42;4.75;;;6.80;99.90;;;;;;5002325;28;20080;-36
2022/12/23 07:25:55;;;;;;;29.38;4.95;;;6.80;99.90;;;;;;5001151;28;20496;-38
2022/12/23 07:28:22;;;;;;;17.83;5.70;;;6.80;99.90;;;;;;4982980;28;20056;-37
2022/12/23 07:30:48;;;;;;;23.90;6.53;;;6.80;99.90;;;;;;4998742;28;20034;-37
2022/12/23 07:33:14;;;;;;;10.43;4.70;;;6.80;99.90;;;;;;4982697;28;20064;-41
2022/12/23 07:35:41;;;;;;;11.50;4.72;;;6.90;99.90;;;;;;4979271;28;20026;-45
2022/12/23 07:38:07;;;;;;;9.43;4.15;;;6.90;99.90;;;;;;4972543;28;20121;-45
2022/12/23 07:40:33;;;;;;;10.85;4.65;;;6.90;99.90;;;;;;4997666;28;20124;-39
2022/12/23 07:42:59;;;;;;;11.75;5.95;;;6.90;99.90;;;;;;4999522;28;20121;-38
2022/12/23 07:45:26;;;;;;;11.48;5.18;;;7.00;99.90;;;;;;4996543;28;20618;-38
2022/12/23 07:47:56;;;;;;;10.43;4.55;;;6.90;99.90;;;;;;4992322;28;20145;-39
2022/12/23 07:50:22;;;;;;;10.40;5.28;;;7.00;99.90;;;;;;4999439;28;20136;-40
2022/12/23 07:52:47;;;;;;;11.05;5.25;;;7.00;99.90;;;;;;5003282;28;20058;-39
2022/12/23 07:55:13;;;;;;;13.05;5.18;;;7.00;99.90;;;;;;5001604;28;20034;-39
2022/12/23 07:57:39;;;;;;;12.27;5.63;;;7.00;99.90;;;;;;4999240;28;20041;-39
2022/12/23 08:00:08;;;;;;;12.13;5.03;;;7.00;99.90;;;;;;5007159;28;20144;-40
2022/12/23 08:02:33;;;;;;;12.27;5.20;;;7.00;99.90;;;;;;5007608;28;20041;-39
2022/12/23 08:04:59;;;;;;;14.02;5.75;;;7.00;99.90;;;;;;4998562;28;20503;-39
2022/12/23 08:07:25;;;;;;;13.40;6.18;;;7.10;99.90;;;;;;5004996;28;20117;-41
2022/12/23 08:09:50;;;;;;;11.32;5.00;;;7.10;99.90;;;;;;4989585;28;20034;-39
2022/12/23 08:12:16;;;;;;;9.82;4.38;;;7.10;99.90;;;;;;4995273;28;20394;-39
2022/12/23 08:14:41;;;;;;;12.80;5.20;;;7.10;99.90;;;;;;4992990;28;20038;-39
2022/12/23 08:17:07;;;;;;;14.90;5.28;;;7.10;99.90;;;;;;4992793;28;20049;-39
2022/12/23 08:19:33;;;;;;;14.20;5.97;;;7.10;99.90;;;;;;4990725;28;20511;-40
2022/12/23 08:21:59;;;;;;;12.98;5.15;;;7.10;99.90;;;;;;4994586;28;20403;-39
2022/12/23 08:24:24;;;;;;;15.73;6.47;;;7.10;99.90;;;;;;4993071;28;20124;-39
2022/12/23 08:26:50;;;;;;;17.35;5.57;;;7.10;99.90;;;;;;5004379;28;20041;-38
2022/12/23 08:29:16;;;;;;;23.95;7.05;;;7.20;99.90;;;;;;5005463;28;20049;-39
2022/12/23 08:31:41;;;;;;;18.42;6.13;;;7.10;99.90;;;;;;5003050;28;20180;-38
2022/12/23 08:34:07;;;;;;;21.42;5.78;;;7.10;99.90;;;;;;5004096;28;20038;-38
2022/12/23 08:36:34;;;;;;;22.08;6.55;;;7.10;99.90;;;;;;4995860;28;20380;-49
2022/12/23 08:39:04;;;;;;;17.88;6.93;;;7.20;99.90;;;;;;5000819;28;20176;-50
2022/12/23 08:41:32;;;;;;;30.40;8.10;;;7.10;99.90;;;;;;4998675;28;20057;-44
2022/12/23 08:43:58;;;;;;;40.42;6.90;;;7.20;99.90;;;;;;4995032;28;20115;-50
2022/12/23 08:46:24;;;;;;;16.15;5.45;;;7.20;99.90;;;;;;4992640;28;20097;-47
2022/12/23 08:48:51;;;;;;;12.77;5.57;;;7.20;99.90;;;;;;4976888;28;20077;-42
2022/12/23 08:51:19;;;;;;;16.38;5.28;;;7.20;99.90;;;;;;4985227;28;20133;-44
2022/12/23 08:53:45;;;;;;;12.07;4.72;;;7.20;99.90;;;;;;4993860;28;20053;-54
2022/12/23 08:56:13;;;;;;;15.00;5.32;;;7.20;99.90;;;;;;4988953;28;20091;-41
2022/12/23 08:58:42;;;;;;;13.75;5.35;;;7.30;99.90;;;;;;4993713;28;20031;-50
2022/12/23 09:01:10;;;;;;;15.68;4.93;;;7.30;99.90;;;;;;5001162;28;20038;-47
2022/12/23 09:03:37;;;;;;;12.32;4.13;;;7.30;99.90;;;;;;5001883;28;20527;-41
2022/12/23 09:06:09;;;;;;;32.28;5.63;;;7.30;99.90;;;;;;5008474;28;20073;-38
2022/12/23 09:08:35;;;;;;;19.35;5.57;;;7.30;99.90;;;;;;5001040;28;20561;-38
2022/12/23 09:11:01;;;;;;;12.30;3.95;;;7.30;99.90;;;;;;5000946;28;20070;-38
2022/12/23 09:13:27;;;;;;;10.25;4.25;;;7.30;99.90;;;;;;4984169;28;20562;-37
2022/12/23 09:15:53;;;;;;;14.80;5.03;;;7.40;99.90;;;;;;4991479;28;20390;-36
2022/12/23 09:18:20;;;;;;;14.98;4.68;;;7.40;99.90;;;;;;4993766;28;20162;-37
2022/12/23 09:20:45;;;;;;;11.98;4.40;;;7.40;99.90;;;;;;5002382;28;20034;-38
2022/12/23 09:23:11;;;;;;;11.70;4.38;;;7.40;99.90;;;;;;4986655;28;20034;-37
2022/12/23 09:25:37;;;;;;;13.48;4.00;;;7.40;99.90;;;;;;4995170;28;20046;-49
2022/12/23 09:28:03;;;;;;;9.65;3.72;;;7.40;99.90;;;;;;5007341;28;20045;-46
2022/12/23 09:30:29;;;;;;;11.93;4.70;;;7.40;99.90;;;;;;4998278;28;20080;-50
2022/12/23 09:32:55;;;;;;;11.07;4.53;;;7.40;99.90;;;;;;4992361;28;20081;-37
2022/12/23 09:35:21;;;;;;;9.50;3.72;;;7.50;99.90;;;;;;4983092;28;20033;-37
2022/12/23 09:37:46;;;;;;;12.20;4.55;;;7.50;99.90;;;;;;4991769;28;20050;-37
2022/12/23 09:40:14;;;;;;;10.60;3.92;;;7.50;99.90;;;;;;5000634;28;20392;-36
2022/12/23 09:43:10;;;;;;;13.63;4.63;;;7.50;99.90;;;;;;4997316;28;20460;-37
2022/12/23 09:45:57;;;;;;;12.07;4.60;;;7.50;99.90;;;;;;4992275;28;20038;-41
2022/12/23 09:48:29;;;;;;;10.02;4.18;;;7.50;99.90;;;;;;4992315;28;20046;-36
2022/12/23 09:50:55;;;;;;;9.80;3.95;;;7.50;99.90;;;;;;4993789;28;20047;-36
2022/12/23 09:53:34;;;;;;;12.82;4.72;;;7.50;99.90;;;;;;4995858;28;20121;-36
2022/12/23 09:56:22;;;;;;;10.93;4.80;;;7.60;99.90;;;;;;5002288;28;20030;-37
2022/12/23 09:58:55;;;;;;;10.82;4.30;;;7.60;99.90;;;;;;5004814;28;20069;-36
2022/12/23 10:01:45;;;;;;;9.52;4.10;;;7.70;99.90;;;;;;5005421;28;20037;-38
2022/12/23 10:04:26;;;;;;;9.98;3.97;;;7.70;99.90;;;;;;5000066;28;20041;-37
2022/12/23 10:07:30;;;;;;;8.05;3.83;;;7.70;99.90;;;;;;5007999;28;20042;-37
2022/12/23 10:09:58;;;;;;;7.03;3.15;;;7.80;99.90;;;;;;4998376;28;20038;-36
2022/12/23 10:12:41;;;;;;;8.00;3.50;;;7.80;99.90;;;;;;5007929;28;20041;-36
2022/12/23 10:15:29;;;;;;;8.75;2.88;;;7.80;99.90;;;;;;5001047;28;20078;-36
2022/12/23 10:18:01;;;;;;;7.38;2.72;;;7.80;99.90;;;;;;5014978;28;20037;-48
2022/12/23 10:20:43;;;;;;;8.43;3.22;;;7.80;99.90;;;;;;5014229;28;20503;-49
2022/12/23 10:23:29;;;;;;;7.05;2.78;;;7.90;99.90;;;;;;4999923;28;20042;-47
2022/12/23 10:25:54;;;;;;;10.02;3.30;;;7.90;99.90;;;;;;5004544;28;20089;-48
2022/12/23 10:28:21;;;;;;;9.95;4.70;;;7.90;99.90;;;;;;4998942;28;20326;-50
2022/12/23 10:30:59;;;;;;;10.45;3.60;;;8.00;99.90;;;;;;4996039;28;20039;-49
2022/12/23 10:33:40;;;;;;;9.93;4.07;;;8.00;99.90;;;;;;4995587;28;20492;-46
2022/12/23 10:36:26;;;;;;;9.43;3.55;;;8.00;99.90;;;;;;4991186;28;20053;-47
2022/12/23 10:39:01;;;;;;;10.02;4.18;;;8.00;99.90;;;;;;5000584;28;20046;-50
2022/12/23 10:41:54;;;;;;;9.75;3.78;;;8.10;99.90;;;;;;4992324;28;20077;-44
2022/12/23 10:44:28;;;;;;;10.77;3.70;;;8.10;99.90;;;;;;4996918;28;20082;-50
2022/12/23 10:47:22;;;;;;;12.77;3.70;;;8.00;99.90;;;;;;4991642;28;20655;-49
2022/12/23 10:50:31;;;;;;;12.18;4.28;;;8.00;99.90;;;;;;5006220;28;20057;-49
2022/12/23 10:53:00;;;;;;;10.82;3.88;;;8.10;99.90;;;;;;5006367;28;20042;-53
2022/12/23 10:55:31;;;;;;;13.65;4.38;;;8.00;99.90;;;;;;5004852;28;20069;-38
2022/12/23 10:58:05;;;;;;;13.73;5.03;;;8.00;99.90;;;;;;4998940;28;20048;-37
2022/12/23 11:00:31;;;;;;;10.90;4.75;;;8.00;99.90;;;;;;5006327;28;20212;-37
2022/12/23 11:03:00;;;;;;;10.57;4.20;;;8.10;99.90;;;;;;5005473;28;20132;-37
2022/12/23 11:05:28;;;;;;;11.80;4.22;;;8.10;99.90;;;;;;5006263;28;20037;-36
2022/12/23 11:07:54;;;;;;;17.30;5.95;;;8.10;99.90;;;;;;5010803;28;20050;-39
2022/12/23 11:10:24;;;;;;;12.63;4.68;;;8.10;99.90;;;;;;4997788;28;20488;-37
2022/12/23 11:12:52;;;;;;;14.00;4.70;;;8.10;99.90;;;;;;4992690;28;20119;-38
2022/12/23 11:15:34;;;;;;;14.50;5.20;;;8.10;99.90;;;;;;4998230;28;20029;-37
2022/12/23 11:18:05;;;;;;;16.25;5.57;;;8.10;99.90;;;;;;4993432;28;20053;-37
2022/12/23 11:20:33;;;;;;;14.43;4.82;;;8.10;99.90;;;;;;4982849;28;20080;-37
2022/12/23 11:23:01;;;;;;;14.43;4.95;;;8.10;99.90;;;;;;4982604;28;20037;-37
2022/12/23 11:25:37;;;;;;;15.23;4.90;;;8.10;99.90;;;;;;5002390;28;20045;-37
2022/12/23 11:28:18;;;;;;;11.55;4.13;;;8.10;99.90;;;;;;4997728;28;20064;-37
2022/12/23 11:30:49;;;;;;;14.25;5.57;;;8.10;99.90;;;;;;5003522;28;21217;-37
2022/12/23 11:33:24;;;;;;;13.70;4.75;;;8.10;99.90;;;;;;5000452;28;20070;-36
2022/12/23 11:36:04;;;;;;;14.32;5.70;;;8.10;99.90;;;;;;4999602;28;20476;-47
2022/12/23 11:38:31;;;;;;;17.73;5.85;;;8.10;99.90;;;;;;4977461;28;20042;-38
2022/12/23 11:40:57;;;;;;;17.88;6.25;;;8.10;99.90;;;;;;4997732;28;20033;-38
2022/12/23 11:43:24;;;;;;;15.93;5.90;;;8.10;99.90;;;;;;4998557;28;20038;-37
2022/12/23 11:46:15;;;;;;;15.68;5.90;;;8.10;99.90;;;;;;4997423;28;20050;-37
2022/12/23 11:48:40;;;;;;;19.17;5.95;;;8.10;99.90;;;;;;4997690;28;20038;-37
2022/12/23 11:51:06;;;;;;;14.93;4.95;;;8.10;99.90;;;;;;4997455;28;20057;-40
2022/12/23 11:53:33;;;;;;;19.13;5.68;;;8.10;99.90;;;;;;4995468;28;20198;-37
2022/12/23 11:56:06;;;;;;;21.65;6.57;;;8.10;99.90;;;;;;4994300;28;20038;-38
2022/12/23 11:58:53;;;;;;;17.98;7.07;;;8.10;99.90;;;;;;4988872;28;20068;-37
2022/12/23 12:01:22;;;;;;;18.75;6.22;;;8.10;99.90;;;;;;4997600;28;20030;-40
2022/12/23 12:04:01;;;;;;;19.90;6.50;;;8.10;99.90;;;;;;5003966;28;20037;-38
2022/12/23 12:06:28;;;;;;;19.27;5.88;;;8.10;99.90;;;;;;4996927;28;20942;-38
2022/12/23 12:08:58;;;;;;;19.30;6.65;;;8.10;99.90;;;;;;5001326;28;20046;-44
2022/12/23 12:11:28;;;;;;;19.83;6.60;;;8.10;99.90;;;;;;4999965;28;20574;-46
2022/12/23 12:14:05;;;;;;;16.30;6.13;;;8.10;99.90;;;;;;5002431;28;20251;-44
2022/12/23 12:16:33;;;;;;;18.88;5.75;;;8.10;99.90;;;;;;5004066;28;20104;-47
2022/12/23 12:19:34;;;;;;;19.60;6.13;;;8.10;99.90;;;;;;5006907;28;20113;-45
2022/12/23 12:22:04;;;;;;;19.40;6.25;;;8.10;99.90;;;;;;4991109;28;20141;-44
2022/12/23 12:24:51;;;;;;;21.40;7.00;;;8.10;99.90;;;;;;4987952;28;20160;-47
2022/12/23 12:27:18;;;;;;;22.60;6.85;;;8.10;99.90;;;;;;4998125;28;20364;-44
2022/12/23 12:29:50;;;;;;;20.77;6.07;;;8.10;99.90;;;;;;4996008;28;20571;-46
2022/12/23 12:32:45;;;;;;;20.85;6.57;;;8.10;99.90;;;;;;4997537;28;20494;-43
2022/12/23 12:35:17;;;;;;;16.77;5.80;;;8.10;99.90;;;;;;4997872;28;20506;-46
2022/12/23 12:38:03;;;;;;;24.52;7.30;;;8.10;99.90;;;;;;4996738;28;20123;-49
2022/12/23 12:40:39;;;;;;;25.83;7.47;;;8.10;99.90;;;;;;4991470;28;20045;-42
2022/12/23 12:43:28;;;;;;;24.67;6.75;;;8.10;99.90;;;;;;4993206;28;20100;-41
2022/12/23 12:46:09;;;;;;;19.83;6.65;;;8.10;99.90;;;;;;4989201;28;20501;-45
2022/12/23 12:48:50;;;;;;;27.40;7.28;;;8.10;99.90;;;;;;4991384;28;20045;-44
2022/12/23 12:51:15;;;;;;;27.27;7.97;;;8.10;99.90;;;;;;4991530;28;21618;-50
2022/12/23 12:53:54;;;;;;;22.55;6.72;;;8.10;99.90;;;;;;4987477;28;20046;-41
2022/12/23 12:57:10;;;;;;;24.15;7.13;;;8.20;99.90;;;;;;4993535;28;20045;-41
2022/12/23 12:59:37;;;;;;;22.77;6.55;;;8.20;99.90;;;;;;4929952;28;20521;-46
2022/12/23 13:02:24;;;;;;;25.17;7.43;;;8.10;99.90;;;;;;4934633;29;20050;-42
2022/12/23 13:05:11;;;;;;;22.35;7.68;;;8.20;99.90;;;;;;4961602;28;20046;-45
2022/12/23 13:08:15;;;;;;;21.70;6.50;;;8.20;99.90;;;;;;4975762;28;20073;-47
2022/12/23 13:10:52;;;;;;;20.55;6.82;;;8.20;99.90;;;;;;4996792;28;20088;-44
2022/12/23 13:13:47;;;;;;;19.17;7.25;;;8.20;99.90;;;;;;4988485;28;20039;-41
2022/12/23 13:16:25;;;;;;;18.13;6.38;;;8.10;99.90;;;;;;4979321;28;20054;-44
2022/12/23 13:19:15;;;;;;;19.25;6.47;;;8.20;99.90;;;;;;4989938;28;20068;-44
2022/12/23 13:21:53;;;;;;;19.45;5.72;;;8.20;99.90;;;;;;4999892;28;20042;-45
2022/12/23 13:24:33;;;;;;;14.77;5.80;;;8.20;99.90;;;;;;5000899;28;20095;-44
2022/12/23 13:27:43;;;;;;;15.80;5.22;;;8.10;99.90;;;;;;4991527;28;20415;-47
2022/12/23 13:30:17;;;;;;;18.70;6.57;;;8.20;99.90;;;;;;4990582;28;20117;-44
2022/12/23 13:33:27;;;;;;;20.70;5.97;;;8.20;99.90;;;;;;5001023;28;20553;-45